sensor_id;sensor_type;location;lat;lon;timestamp;P1;durP1;ratioP1;P2;durP2;ratioP2
44694;SDS011;32845;59.422;17.930;2024-02-23T00:03:39;22.23;;;10.13;;
44694;SDS011;32845;59.422;17.930;2024-02-23T00:08:10;23.42;;;9.57;;
44694;SDS011;32845;59.422;17.930;2024-02-23T00:12:41;23.48;;;9.95;;
44694;SDS011;32845;59.422;17.930;2024-02-23T00:17:13;28.65;;;10.57;;
44694;SDS011;32845;59.422;17.930;2024-02-23T00:21:44;22.88;;;10.27;;
44694;SDS011;32845;59.422;17.930;2024-02-23T00:26:19;24.45;;;10.30;;
44694;SDS011;32845;59.422;17.930;2024-02-23T00:30:50;26.70;;;10.70;;
44694;SDS011;32845;59.422;17.930;2024-02-23T00:35:21;26.13;;;11.60;;
44694;SDS011;32845;59.422;17.930;2024-02-23T00:39:51;34.72;;;11.68;;
44694;SDS011;32845;59.422;17.930;2024-02-23T00:44:22;25.52;;;10.20;;
44694;SDS011;32845;59.422;17.930;2024-02-23T00:48:52;27.30;;;10.30;;
44694;SDS011;32845;59.422;17.930;2024-02-23T00:53:24;34.20;;;11.77;;
44694;SDS011;32845;59.422;17.930;2024-02-23T00:57:54;34.95;;;11.63;;
44694;SDS011;32845;59.422;17.930;2024-02-23T01:02:26;34.55;;;10.25;;
44694;SDS011;32845;59.422;17.930;2024-02-23T01:06:57;27.15;;;10.55;;
44694;SDS011;32845;59.422;17.930;2024-02-23T01:11:28;26.92;;;10.50;;
44694;SDS011;32845;59.422;17.930;2024-02-23T01:15:59;25.08;;;12.27;;
44694;SDS011;32845;59.422;17.930;2024-02-23T01:20:29;29.25;;;12.40;;
44694;SDS011;32845;59.422;17.930;2024-02-23T01:25:00;27.50;;;11.05;;
44694;SDS011;32845;59.422;17.930;2024-02-23T01:29:30;25.00;;;11.20;;
44694;SDS011;32845;59.422;17.930;2024-02-23T01:34:01;33.78;;;12.95;;
44694;SDS011;32845;59.422;17.930;2024-02-23T01:38:32;28.63;;;11.25;;
44694;SDS011;32845;59.422;17.930;2024-02-23T01:43:03;30.80;;;12.27;;
44694;SDS011;32845;59.422;17.930;2024-02-23T01:47:34;23.83;;;11.07;;
44694;SDS011;32845;59.422;17.930;2024-02-23T01:52:05;27.63;;;10.93;;
44694;SDS011;32845;59.422;17.930;2024-02-23T01:56:36;29.75;;;10.73;;
44694;SDS011;32845;59.422;17.930;2024-02-23T02:01:09;23.75;;;10.27;;
44694;SDS011;32845;59.422;17.930;2024-02-23T02:05:40;20.63;;;10.45;;
44694;SDS011;32845;59.422;17.930;2024-02-23T02:10:11;20.90;;;10.80;;
44694;SDS011;32845;59.422;17.930;2024-02-23T02:14:42;20.58;;;9.65;;
44694;SDS011;32845;59.422;17.930;2024-02-23T02:19:12;23.30;;;10.30;;
44694;SDS011;32845;59.422;17.930;2024-02-23T02:23:43;19.65;;;9.85;;
44694;SDS011;32845;59.422;17.930;2024-02-23T02:28:14;26.70;;;9.93;;
44694;SDS011;32845;59.422;17.930;2024-02-23T02:32:45;25.55;;;10.48;;
44694;SDS011;32845;59.422;17.930;2024-02-23T02:37:15;21.85;;;10.80;;
44694;SDS011;32845;59.422;17.930;2024-02-23T02:41:47;26.98;;;10.68;;
44694;SDS011;32845;59.422;17.930;2024-02-23T02:46:18;24.73;;;11.32;;
44694;SDS011;32845;59.422;17.930;2024-02-23T02:50:49;26.23;;;11.30;;
44694;SDS011;32845;59.422;17.930;2024-02-23T02:55:23;22.38;;;11.27;;
44694;SDS011;32845;59.422;17.930;2024-02-23T02:59:53;19.38;;;9.82;;
44694;SDS011;32845;59.422;17.930;2024-02-23T03:04:24;22.27;;;9.40;;
44694;SDS011;32845;59.422;17.930;2024-02-23T03:08:54;17.83;;;8.63;;
44694;SDS011;32845;59.422;17.930;2024-02-23T03:13:25;18.25;;;8.38;;
44694;SDS011;32845;59.422;17.930;2024-02-23T03:17:56;21.65;;;8.90;;
44694;SDS011;32845;59.422;17.930;2024-02-23T03:22:27;18.33;;;8.93;;
44694;SDS011;32845;59.422;17.930;2024-02-23T03:26:57;24.50;;;10.07;;
44694;SDS011;32845;59.422;17.930;2024-02-23T03:31:28;17.33;;;8.50;;
44694;SDS011;32845;59.422;17.930;2024-02-23T03:35:59;20.50;;;8.60;;
44694;SDS011;32845;59.422;17.930;2024-02-23T03:40:29;16.63;;;8.35;;
44694;SDS011;32845;59.422;17.930;2024-02-23T03:45:01;15.40;;;8.18;;
44694;SDS011;32845;59.422;17.930;2024-02-23T03:49:33;15.95;;;7.40;;
44694;SDS011;32845;59.422;17.930;2024-02-23T03:54:03;13.70;;;7.63;;
44694;SDS011;32845;59.422;17.930;2024-02-23T03:58:34;13.35;;;7.65;;
44694;SDS011;32845;59.422;17.930;2024-02-23T04:03:04;15.88;;;7.57;;
44694;SDS011;32845;59.422;17.930;2024-02-23T04:07:35;16.08;;;7.55;;
44694;SDS011;32845;59.422;17.930;2024-02-23T04:12:06;17.60;;;9.15;;
44694;SDS011;32845;59.422;17.930;2024-02-23T04:16:37;16.88;;;9.30;;
44694;SDS011;32845;59.422;17.930;2024-02-23T04:21:07;18.85;;;9.48;;
44694;SDS011;32845;59.422;17.930;2024-02-23T04:25:38;22.15;;;8.55;;
44694;SDS011;32845;59.422;17.930;2024-02-23T04:30:09;19.02;;;8.80;;
44694;SDS011;32845;59.422;17.930;2024-02-23T04:34:41;17.45;;;8.48;;
44694;SDS011;32845;59.422;17.930;2024-02-23T04:39:11;16.20;;;8.45;;
44694;SDS011;32845;59.422;17.930;2024-02-23T04:43:42;15.75;;;7.72;;
44694;SDS011;32845;59.422;17.930;2024-02-23T04:48:12;17.02;;;8.55;;
44694;SDS011;32845;59.422;17.930;2024-02-23T04:52:43;18.30;;;7.90;;
44694;SDS011;32845;59.422;17.930;2024-02-23T04:57:13;17.48;;;7.53;;
44694;SDS011;32845;59.422;17.930;2024-02-23T05:01:44;14.02;;;6.80;;
44694;SDS011;32845;59.422;17.930;2024-02-23T05:06:15;12.90;;;5.95;;
44694;SDS011;32845;59.422;17.930;2024-02-23T05:10:48;11.60;;;5.55;;
44694;SDS011;32845;59.422;17.930;2024-02-23T05:15:19;9.20;;;5.20;;
44694;SDS011;32845;59.422;17.930;2024-02-23T05:19:51;9.60;;;4.68;;
44694;SDS011;32845;59.422;17.930;2024-02-23T05:24:21;8.07;;;4.97;;
44694;SDS011;32845;59.422;17.930;2024-02-23T05:28:52;13.70;;;5.10;;
44694;SDS011;32845;59.422;17.930;2024-02-23T05:33:23;10.70;;;5.90;;
44694;SDS011;32845;59.422;17.930;2024-02-23T05:37:54;13.25;;;6.55;;
44694;SDS011;32845;59.422;17.930;2024-02-23T05:42:25;11.95;;;6.45;;
44694;SDS011;32845;59.422;17.930;2024-02-23T05:46:56;17.92;;;7.25;;
44694;SDS011;32845;59.422;17.930;2024-02-23T05:51:30;14.95;;;7.18;;
44694;SDS011;32845;59.422;17.930;2024-02-23T05:56:01;14.77;;;6.50;;
44694;SDS011;32845;59.422;17.930;2024-02-23T06:00:31;17.05;;;6.53;;
44694;SDS011;32845;59.422;17.930;2024-02-23T06:05:02;13.95;;;6.72;;
44694;SDS011;32845;59.422;17.930;2024-02-23T06:09:33;16.25;;;7.68;;
44694;SDS011;32845;59.422;17.930;2024-02-23T06:14:04;12.63;;;5.93;;
44694;SDS011;32845;59.422;17.930;2024-02-23T06:18:35;15.90;;;6.38;;
44694;SDS011;32845;59.422;17.930;2024-02-23T06:23:06;14.10;;;6.35;;
44694;SDS011;32845;59.422;17.930;2024-02-23T06:27:37;15.00;;;6.35;;
44694;SDS011;32845;59.422;17.930;2024-02-23T06:32:07;13.43;;;6.38;;
44694;SDS011;32845;59.422;17.930;2024-02-23T06:36:38;14.18;;;6.22;;
44694;SDS011;32845;59.422;17.930;2024-02-23T06:41:08;13.90;;;6.72;;
44694;SDS011;32845;59.422;17.930;2024-02-23T06:45:40;21.30;;;8.77;;
44694;SDS011;32845;59.422;17.930;2024-02-23T06:50:11;18.80;;;7.75;;
44694;SDS011;32845;59.422;17.930;2024-02-23T06:54:42;18.70;;;8.07;;
44694;SDS011;32845;59.422;17.930;2024-02-23T06:59:12;20.38;;;7.63;;
44694;SDS011;32845;59.422;17.930;2024-02-23T07:03:43;18.77;;;7.82;;
44694;SDS011;32845;59.422;17.930;2024-02-23T07:08:15;17.05;;;7.22;;
44694;SDS011;32845;59.422;17.930;2024-02-23T07:12:46;12.15;;;6.90;;
44694;SDS011;32845;59.422;17.930;2024-02-23T07:17:16;15.95;;;7.43;;
44694;SDS011;32845;59.422;17.930;2024-02-23T07:21:47;19.27;;;8.20;;
44694;SDS011;32845;59.422;17.930;2024-02-23T07:26:18;20.52;;;7.70;;
44694;SDS011;32845;59.422;17.930;2024-02-23T07:30:50;17.80;;;8.50;;
44694;SDS011;32845;59.422;17.930;2024-02-23T07:35:21;19.30;;;8.23;;
44694;SDS011;32845;59.422;17.930;2024-02-23T07:39:51;20.17;;;8.00;;
44694;SDS011;32845;59.422;17.930;2024-02-23T07:44:22;14.73;;;8.15;;
44694;SDS011;32845;59.422;17.930;2024-02-23T07:48:54;15.57;;;7.10;;
44694;SDS011;32845;59.422;17.930;2024-02-23T07:53:25;11.73;;;6.40;;
44694;SDS011;32845;59.422;17.930;2024-02-23T07:57:56;14.73;;;6.15;;
44694;SDS011;32845;59.422;17.930;2024-02-23T08:02:31;14.68;;;6.35;;
44694;SDS011;32845;59.422;17.930;2024-02-23T08:07:01;10.38;;;5.47;;
44694;SDS011;32845;59.422;17.930;2024-02-23T08:11:32;13.38;;;5.25;;
44694;SDS011;32845;59.422;17.930;2024-02-23T08:16:08;14.68;;;5.68;;
44694;SDS011;32845;59.422;17.930;2024-02-23T08:20:38;18.42;;;6.80;;
44694;SDS011;32845;59.422;17.930;2024-02-23T08:25:09;11.85;;;6.57;;
44694;SDS011;32845;59.422;17.930;2024-02-23T08:29:40;16.70;;;7.20;;
44694;SDS011;32845;59.422;17.930;2024-02-23T08:34:11;14.57;;;7.55;;
44694;SDS011;32845;59.422;17.930;2024-02-23T08:38:42;15.93;;;7.05;;
44694;SDS011;32845;59.422;17.930;2024-02-23T08:43:13;12.10;;;7.18;;
44694;SDS011;32845;59.422;17.930;2024-02-23T08:47:44;13.75;;;7.30;;
44694;SDS011;32845;59.422;17.930;2024-02-23T08:52:14;17.48;;;6.68;;
44694;SDS011;32845;59.422;17.930;2024-02-23T08:56:45;12.95;;;5.72;;
44694;SDS011;32845;59.422;17.930;2024-02-23T09:01:16;15.90;;;5.80;;
44694;SDS011;32845;59.422;17.930;2024-02-23T09:05:46;10.82;;;4.60;;
44694;SDS011;32845;59.422;17.930;2024-02-23T09:10:18;10.02;;;4.75;;
44694;SDS011;32845;59.422;17.930;2024-02-23T09:14:48;8.43;;;4.18;;
44694;SDS011;32845;59.422;17.930;2024-02-23T09:19:19;8.52;;;4.20;;
44694;SDS011;32845;59.422;17.930;2024-02-23T09:23:50;12.48;;;4.85;;
44694;SDS011;32845;59.422;17.930;2024-02-23T09:28:21;16.77;;;5.82;;
44694;SDS011;32845;59.422;17.930;2024-02-23T09:32:51;13.00;;;5.93;;
44694;SDS011;32845;59.422;17.930;2024-02-23T09:37:22;10.07;;;5.53;;
44694;SDS011;32845;59.422;17.930;2024-02-23T09:41:53;12.48;;;5.72;;
44694;SDS011;32845;59.422;17.930;2024-02-23T09:46:25;14.38;;;5.53;;
44694;SDS011;32845;59.422;17.930;2024-02-23T09:50:56;9.30;;;5.07;;
44694;SDS011;32845;59.422;17.930;2024-02-23T09:55:29;10.80;;;5.95;;
44694;SDS011;32845;59.422;17.930;2024-02-23T09:59:59;11.43;;;5.03;;
44694;SDS011;32845;59.422;17.930;2024-02-23T10:04:31;10.15;;;3.00;;
44694;SDS011;32845;59.422;17.930;2024-02-23T10:09:01;6.88;;;3.38;;
44694;SDS011;32845;59.422;17.930;2024-02-23T10:13:34;8.05;;;3.63;;
44694;SDS011;32845;59.422;17.930;2024-02-23T10:18:04;8.32;;;3.60;;
44694;SDS011;32845;59.422;17.930;2024-02-23T10:22:35;11.57;;;3.28;;
44694;SDS011;32845;59.422;17.930;2024-02-23T10:27:06;9.07;;;2.83;;
44694;SDS011;32845;59.422;17.930;2024-02-23T10:31:36;5.60;;;2.40;;
44694;SDS011;32845;59.422;17.930;2024-02-23T10:36:07;6.35;;;2.83;;
44694;SDS011;32845;59.422;17.930;2024-02-23T10:40:41;5.90;;;2.42;;
44694;SDS011;32845;59.422;17.930;2024-02-23T10:45:19;7.57;;;2.33;;
44694;SDS011;32845;59.422;17.930;2024-02-23T10:49:51;4.50;;;1.67;;
44694;SDS011;32845;59.422;17.930;2024-02-23T10:54:23;4.53;;;2.00;;
44694;SDS011;32845;59.422;17.930;2024-02-23T10:58:54;3.28;;;1.33;;
44694;SDS011;32845;59.422;17.930;2024-02-23T11:03:25;4.30;;;1.27;;
44694;SDS011;32845;59.422;17.930;2024-02-23T11:07:56;4.72;;;1.27;;
44694;SDS011;32845;59.422;17.930;2024-02-23T11:12:30;2.78;;;0.90;;
44694;SDS011;32845;59.422;17.930;2024-02-23T11:17:01;2.25;;;0.77;;
44694;SDS011;32845;59.422;17.930;2024-02-23T11:21:33;2.83;;;0.60;;
44694;SDS011;32845;59.422;17.930;2024-02-23T11:26:06;4.70;;;0.70;;
44694;SDS011;32845;59.422;17.930;2024-02-23T11:30:38;3.28;;;0.50;;
44694;SDS011;32845;59.422;17.930;2024-02-23T11:35:16;2.88;;;1.00;;
44694;SDS011;32845;59.422;17.930;2024-02-23T11:39:51;2.50;;;0.60;;
44694;SDS011;32845;59.422;17.930;2024-02-23T11:44:22;5.10;;;0.60;;
44694;SDS011;32845;59.422;17.930;2024-02-23T11:48:52;3.33;;;0.73;;
44694;SDS011;32845;59.422;17.930;2024-02-23T11:53:24;3.42;;;0.50;;
44694;SDS011;32845;59.422;17.930;2024-02-23T11:57:57;3.83;;;0.88;;
44694;SDS011;32845;59.422;17.930;2024-02-23T12:02:27;4.95;;;0.70;;
44694;SDS011;32845;59.422;17.930;2024-02-23T12:06:58;0.90;;;0.40;;
44694;SDS011;32845;59.422;17.930;2024-02-23T12:11:29;4.25;;;0.70;;
44694;SDS011;32845;59.422;17.930;2024-02-23T12:16:00;1.65;;;0.40;;
44694;SDS011;32845;59.422;17.930;2024-02-23T12:20:35;3.63;;;0.65;;
44694;SDS011;32845;59.422;17.930;2024-02-23T12:25:06;8.55;;;0.90;;
44694;SDS011;32845;59.422;17.930;2024-02-23T12:29:37;3.80;;;0.50;;
44694;SDS011;32845;59.422;17.930;2024-02-23T12:34:07;7.13;;;0.82;;
44694;SDS011;32845;59.422;17.930;2024-02-23T12:38:42;11.30;;;1.17;;
44694;SDS011;32845;59.422;17.930;2024-02-23T12:43:12;11.15;;;0.82;;
44694;SDS011;32845;59.422;17.930;2024-02-23T12:47:43;2.88;;;0.52;;
44694;SDS011;32845;59.422;17.930;2024-02-23T12:52:13;6.25;;;0.63;;
44694;SDS011;32845;59.422;17.930;2024-02-23T12:56:45;9.93;;;0.90;;
44694;SDS011;32845;59.422;17.930;2024-02-23T13:01:15;7.07;;;0.75;;
44694;SDS011;32845;59.422;17.930;2024-02-23T13:05:46;1.67;;;0.80;;
44694;SDS011;32845;59.422;17.930;2024-02-23T13:10:18;7.25;;;1.08;;
44694;SDS011;32845;59.422;17.930;2024-02-23T13:14:49;8.38;;;1.13;;
44694;SDS011;32845;59.422;17.930;2024-02-23T13:19:20;6.13;;;0.60;;
44694;SDS011;32845;59.422;17.930;2024-02-23T13:23:51;8.85;;;1.05;;
44694;SDS011;32845;59.422;17.930;2024-02-23T13:28:21;4.70;;;0.70;;
44694;SDS011;32845;59.422;17.930;2024-02-23T13:32:53;12.15;;;1.20;;
44694;SDS011;32845;59.422;17.930;2024-02-23T13:37:23;11.10;;;1.17;;
44694;SDS011;32845;59.422;17.930;2024-02-23T13:41:56;5.00;;;0.68;;
44694;SDS011;32845;59.422;17.930;2024-02-23T13:46:26;4.70;;;0.85;;
44694;SDS011;32845;59.422;17.930;2024-02-23T13:50:57;5.78;;;1.10;;
44694;SDS011;32845;59.422;17.930;2024-02-23T13:55:32;10.63;;;1.13;;
44694;SDS011;32845;59.422;17.930;2024-02-23T14:00:03;5.72;;;0.68;;
44694;SDS011;32845;59.422;17.930;2024-02-23T14:04:38;7.63;;;0.80;;
44694;SDS011;32845;59.422;17.930;2024-02-23T14:09:09;4.35;;;0.70;;
44694;SDS011;32845;59.422;17.930;2024-02-23T14:13:39;8.07;;;1.33;;
44694;SDS011;32845;59.422;17.930;2024-02-23T14:18:10;5.03;;;0.75;;
44694;SDS011;32845;59.422;17.930;2024-02-23T14:22:41;4.22;;;0.80;;
44694;SDS011;32845;59.422;17.930;2024-02-23T14:27:12;3.97;;;0.60;;
44694;SDS011;32845;59.422;17.930;2024-02-23T14:31:42;4.70;;;0.90;;
44694;SDS011;32845;59.422;17.930;2024-02-23T14:36:13;3.95;;;0.80;;
44694;SDS011;32845;59.422;17.930;2024-02-23T14:40:43;8.57;;;0.80;;
44694;SDS011;32845;59.422;17.930;2024-02-23T14:45:14;10.57;;;1.10;;
44694;SDS011;32845;59.422;17.930;2024-02-23T14:49:46;7.88;;;0.93;;
44694;SDS011;32845;59.422;17.930;2024-02-23T14:54:17;4.13;;;1.20;;
44694;SDS011;32845;59.422;17.930;2024-02-23T14:58:47;12.07;;;1.10;;
44694;SDS011;32845;59.422;17.930;2024-02-23T15:03:18;7.32;;;1.08;;
44694;SDS011;32845;59.422;17.930;2024-02-23T15:07:49;7.13;;;0.98;;
44694;SDS011;32845;59.422;17.930;2024-02-23T15:12:19;7.30;;;0.85;;
44694;SDS011;32845;59.422;17.930;2024-02-23T15:16:51;6.28;;;0.98;;
44694;SDS011;32845;59.422;17.930;2024-02-23T15:21:22;7.95;;;0.93;;
44694;SDS011;32845;59.422;17.930;2024-02-23T15:25:53;6.45;;;0.80;;
44694;SDS011;32845;59.422;17.930;2024-02-23T15:30:24;5.18;;;1.10;;
44694;SDS011;32845;59.422;17.930;2024-02-23T15:34:55;9.40;;;1.02;;
44694;SDS011;32845;59.422;17.930;2024-02-23T15:39:26;4.35;;;0.65;;
44694;SDS011;32845;59.422;17.930;2024-02-23T15:43:56;14.02;;;1.08;;
44694;SDS011;32845;59.422;17.930;2024-02-23T15:48:27;5.43;;;1.00;;
44694;SDS011;32845;59.422;17.930;2024-02-23T15:52:57;9.45;;;0.80;;
44694;SDS011;32845;59.422;17.930;2024-02-23T15:57:28;9.23;;;1.10;;
44694;SDS011;32845;59.422;17.930;2024-02-23T16:01:59;8.32;;;1.15;;
44694;SDS011;32845;59.422;17.930;2024-02-23T16:06:31;8.10;;;1.10;;
44694;SDS011;32845;59.422;17.930;2024-02-23T16:11:05;4.70;;;0.63;;
44694;SDS011;32845;59.422;17.930;2024-02-23T16:15:35;11.90;;;1.20;;
44694;SDS011;32845;59.422;17.930;2024-02-23T16:20:06;13.02;;;1.10;;
44694;SDS011;32845;59.422;17.930;2024-02-23T16:24:37;8.38;;;1.15;;
44694;SDS011;32845;59.422;17.930;2024-02-23T16:29:08;4.38;;;0.90;;
44694;SDS011;32845;59.422;17.930;2024-02-23T16:33:38;5.20;;;0.77;;
44694;SDS011;32845;59.422;17.930;2024-02-23T16:38:09;8.90;;;0.98;;
44694;SDS011;32845;59.422;17.930;2024-02-23T16:42:41;9.10;;;1.23;;
44694;SDS011;32845;59.422;17.930;2024-02-23T16:47:11;9.35;;;0.93;;
44694;SDS011;32845;59.422;17.930;2024-02-23T16:51:42;7.82;;;1.23;;
44694;SDS011;32845;59.422;17.930;2024-02-23T16:56:15;7.75;;;0.77;;
44694;SDS011;32845;59.422;17.930;2024-02-23T17:00:46;10.32;;;1.13;;
44694;SDS011;32845;59.422;17.930;2024-02-23T17:05:17;6.57;;;0.80;;
44694;SDS011;32845;59.422;17.930;2024-02-23T17:09:48;5.80;;;1.65;;
44694;SDS011;32845;59.422;17.930;2024-02-23T17:14:19;9.85;;;1.45;;
44694;SDS011;32845;59.422;17.930;2024-02-23T17:18:49;7.93;;;0.90;;
44694;SDS011;32845;59.422;17.930;2024-02-23T17:23:20;8.52;;;1.40;;
44694;SDS011;32845;59.422;17.930;2024-02-23T17:27:51;4.57;;;0.80;;
44694;SDS011;32845;59.422;17.930;2024-02-23T17:32:22;5.82;;;1.20;;
44694;SDS011;32845;59.422;17.930;2024-02-23T17:36:52;8.80;;;1.48;;
44694;SDS011;32845;59.422;17.930;2024-02-23T17:41:23;5.70;;;0.85;;
44694;SDS011;32845;59.422;17.930;2024-02-23T17:45:54;5.72;;;1.13;;
44694;SDS011;32845;59.422;17.930;2024-02-23T17:50:24;7.38;;;0.80;;
44694;SDS011;32845;59.422;17.930;2024-02-23T17:54:57;3.67;;;0.90;;
44694;SDS011;32845;59.422;17.930;2024-02-23T17:59:28;5.03;;;1.17;;
44694;SDS011;32845;59.422;17.930;2024-02-23T18:03:59;9.85;;;1.30;;
44694;SDS011;32845;59.422;17.930;2024-02-23T18:08:30;7.72;;;1.15;;
44694;SDS011;32845;59.422;17.930;2024-02-23T18:13:02;4.70;;;0.98;;
44694;SDS011;32845;59.422;17.930;2024-02-23T18:17:32;10.32;;;1.00;;
44694;SDS011;32845;59.422;17.930;2024-02-23T18:22:03;10.23;;;1.20;;
44694;SDS011;32845;59.422;17.930;2024-02-23T18:26:34;8.30;;;0.90;;
44694;SDS011;32845;59.422;17.930;2024-02-23T18:31:04;7.10;;;1.10;;
44694;SDS011;32845;59.422;17.930;2024-02-23T18:35:35;11.23;;;1.02;;
44694;SDS011;32845;59.422;17.930;2024-02-23T18:40:05;5.75;;;0.93;;
44694;SDS011;32845;59.422;17.930;2024-02-23T18:44:37;4.78;;;0.80;;
44694;SDS011;32845;59.422;17.930;2024-02-23T18:49:07;4.75;;;0.50;;
44694;SDS011;32845;59.422;17.930;2024-02-23T18:53:38;5.95;;;1.00;;
44694;SDS011;32845;59.422;17.930;2024-02-23T18:58:08;8.40;;;1.25;;
44694;SDS011;32845;59.422;17.930;2024-02-23T19:02:39;12.63;;;1.15;;
44694;SDS011;32845;59.422;17.930;2024-02-23T19:07:11;6.20;;;0.90;;
44694;SDS011;32845;59.422;17.930;2024-02-23T19:11:41;4.32;;;0.90;;
44694;SDS011;32845;59.422;17.930;2024-02-23T19:16:12;6.93;;;0.90;;
44694;SDS011;32845;59.422;17.930;2024-02-23T19:20:46;5.93;;;0.93;;
44694;SDS011;32845;59.422;17.930;2024-02-23T19:25:16;2.85;;;0.63;;
44694;SDS011;32845;59.422;17.930;2024-02-23T19:29:48;5.93;;;1.00;;
44694;SDS011;32845;59.422;17.930;2024-02-23T19:34:19;6.60;;;0.75;;
44694;SDS011;32845;59.422;17.930;2024-02-23T19:38:50;5.53;;;1.23;;
44694;SDS011;32845;59.422;17.930;2024-02-23T19:43:20;8.57;;;0.85;;
44694;SDS011;32845;59.422;17.930;2024-02-23T19:47:51;14.30;;;1.13;;
44694;SDS011;32845;59.422;17.930;2024-02-23T19:52:22;4.45;;;0.60;;
44694;SDS011;32845;59.422;17.930;2024-02-23T19:56:52;6.78;;;0.80;;
44694;SDS011;32845;59.422;17.930;2024-02-23T20:01:23;6.57;;;0.80;;
44694;SDS011;32845;59.422;17.930;2024-02-23T20:05:54;5.20;;;0.95;;
44694;SDS011;32845;59.422;17.930;2024-02-23T20:10:24;9.65;;;1.27;;
44694;SDS011;32845;59.422;17.930;2024-02-23T20:14:55;3.40;;;0.70;;
44694;SDS011;32845;59.422;17.930;2024-02-23T20:19:26;6.07;;;1.02;;
44694;SDS011;32845;59.422;17.930;2024-02-23T20:23:57;5.35;;;0.70;;
44694;SDS011;32845;59.422;17.930;2024-02-23T20:28:28;6.75;;;0.73;;
44694;SDS011;32845;59.422;17.930;2024-02-23T20:32:59;6.90;;;1.08;;
44694;SDS011;32845;59.422;17.930;2024-02-23T20:37:29;3.53;;;0.75;;
44694;SDS011;32845;59.422;17.930;2024-02-23T20:42:00;7.18;;;0.60;;
44694;SDS011;32845;59.422;17.930;2024-02-23T20:46:32;8.98;;;1.00;;
44694;SDS011;32845;59.422;17.930;2024-02-23T20:51:03;7.68;;;1.20;;
44694;SDS011;32845;59.422;17.930;2024-02-23T20:55:35;6.03;;;0.80;;
44694;SDS011;32845;59.422;17.930;2024-02-23T21:00:05;6.32;;;1.10;;
44694;SDS011;32845;59.422;17.930;2024-02-23T21:04:37;1.92;;;0.60;;
44694;SDS011;32845;59.422;17.930;2024-02-23T21:09:11;5.38;;;0.70;;
44694;SDS011;32845;59.422;17.930;2024-02-23T21:13:42;3.53;;;0.63;;
44694;SDS011;32845;59.422;17.930;2024-02-23T21:18:13;6.03;;;0.90;;
44694;SDS011;32845;59.422;17.930;2024-02-23T21:22:47;10.10;;;1.38;;
44694;SDS011;32845;59.422;17.930;2024-02-23T21:27:18;5.03;;;0.88;;
44694;SDS011;32845;59.422;17.930;2024-02-23T21:31:49;2.85;;;0.52;;
44694;SDS011;32845;59.422;17.930;2024-02-23T21:36:20;4.57;;;0.65;;
44694;SDS011;32845;59.422;17.930;2024-02-23T21:40:50;6.00;;;0.80;;
44694;SDS011;32845;59.422;17.930;2024-02-23T21:45:21;6.03;;;0.70;;
44694;SDS011;32845;59.422;17.930;2024-02-23T21:49:51;3.35;;;0.68;;
44694;SDS011;32845;59.422;17.930;2024-02-23T21:54:22;4.30;;;0.52;;
44694;SDS011;32845;59.422;17.930;2024-02-23T21:58:53;3.05;;;0.70;;
44694;SDS011;32845;59.422;17.930;2024-02-23T22:03:23;5.80;;;0.90;;
44694;SDS011;32845;59.422;17.930;2024-02-23T22:07:55;3.53;;;0.88;;
44694;SDS011;32845;59.422;17.930;2024-02-23T22:12:25;4.45;;;1.08;;
44694;SDS011;32845;59.422;17.930;2024-02-23T22:16:56;8.52;;;1.10;;
44694;SDS011;32845;59.422;17.930;2024-02-23T22:21:27;6.47;;;0.70;;
44694;SDS011;32845;59.422;17.930;2024-02-23T22:25:57;5.47;;;0.70;;
44694;SDS011;32845;59.422;17.930;2024-02-23T22:30:28;2.95;;;0.57;;
44694;SDS011;32845;59.422;17.930;2024-02-23T22:34:59;4.18;;;0.85;;
44694;SDS011;32845;59.422;17.930;2024-02-23T22:39:29;2.33;;;0.70;;
44694;SDS011;32845;59.422;17.930;2024-02-23T22:44:00;4.05;;;0.68;;
44694;SDS011;32845;59.422;17.930;2024-02-23T22:48:31;4.35;;;0.68;;
44694;SDS011;32845;59.422;17.930;2024-02-23T22:53:02;7.60;;;0.85;;
44694;SDS011;32845;59.422;17.930;2024-02-23T22:57:34;4.70;;;0.70;;
44694;SDS011;32845;59.422;17.930;2024-02-23T23:02:05;4.43;;;0.75;;
44694;SDS011;32845;59.422;17.930;2024-02-23T23:06:36;3.28;;;0.82;;
44694;SDS011;32845;59.422;17.930;2024-02-23T23:11:07;4.75;;;0.80;;
44694;SDS011;32845;59.422;17.930;2024-02-23T23:15:38;5.25;;;1.77;;
44694;SDS011;32845;59.422;17.930;2024-02-23T23:20:09;2.22;;;0.57;;
44694;SDS011;32845;59.422;17.930;2024-02-23T23:24:39;5.70;;;0.95;;
44694;SDS011;32845;59.422;17.930;2024-02-23T23:29:10;6.28;;;1.00;;
44694;SDS011;32845;59.422;17.930;2024-02-23T23:33:41;2.00;;;0.68;;
44694;SDS011;32845;59.422;17.930;2024-02-23T23:38:12;3.58;;;1.08;;
44694;SDS011;32845;59.422;17.930;2024-02-23T23:42:43;7.55;;;1.00;;
44694;SDS011;32845;59.422;17.930;2024-02-23T23:47:13;4.60;;;0.85;;
44694;SDS011;32845;59.422;17.930;2024-02-23T23:51:44;6.45;;;1.55;;
44694;SDS011;32845;59.422;17.930;2024-02-23T23:56:14;6.38;;;1.00;;
